Latest Weather Observations for Dalby

IDQ60801

Issued at 10:02 pm EST Monday 26 September 2016 (issued every 30 minutes, with the page automatically refreshed every 10 minutes)

About weather observations | Map of weather stations | Latest weather observations for QLD | Other Formats
Station Details ID: 041522 Name: DALBY AIRPORT Lat: -27.16 Lon: 151.26 Height: 343.9 m
Data from the previous 72 hours. | See also: Recent months at Dalby
Date/Time
EST
Temp
°C
App
Temp
°C
Dew
Point
°C
Rel
Hum
%
Delta-T
°C
Wind Press
QNH
hPa
Press
MSL
hPa
Rain since
9am
mm
Dir  Spd
km/h
Gust
km/h
Spd
kts
Gust
kts
26/10:00pm 14.7 12.6 8.4 66 3.2 SW 9 13 5 7 1015.3 1014.4 0.0
26/09:30pm 15.0 12.6 8.5 65 3.3 WSW 11 13 6 7 1015.3 1014.4 0.0
26/09:00pm 15.8 13.2 7.8 59 4.1 WSW 11 15 6 8 1015.0 1014.1 0.0
26/08:30pm 16.7 13.3 7.6 55 4.7 SW 15 19 8 10 1015.1 1014.2 0.0
26/08:00pm 17.2 13.0 7.3 52 5.0 SW 19 24 10 13 1014.5 1013.7 0.0
26/07:30pm 17.2 13.8 7.5 53 5.0 WSW 15 20 8 11 1013.9 1013.1 0.0
26/07:00pm 17.6 14.1 7.1 50 5.3 WSW 15 19 8 10 1013.4 1012.6 0.0
26/06:30pm 17.3 13.6 6.5 49 5.4 WSW 15 17 8 9 1013.1 1012.3 0.0
26/06:00pm 18.2 14.4 5.8 44 6.2 WSW 15 17 8 9 1012.5 1011.6 0.0
26/05:30pm 19.8 15.2 3.5 34 7.8 WSW 17 22 9 12 1012.3 1011.4 0.0
26/05:00pm 21.2 16.1 4.3 33 8.4 W 20 24 11 13 1012.0 1011.1 0.0
26/04:30pm 21.9 16.6 4.9 33 8.5 W 22 30 12 16 1012.0 1011.1 0.0
26/04:00pm 22.6 17.3 5.1 32 8.9 W 22 32 12 17 1011.9 1011.0 0.0
26/03:30pm 22.7 17.7 4.7 31 9.0 WSW 20 32 11 17 1011.6 1010.8 0.0
26/03:00pm 23.0 17.6 4.5 30 9.3 W 22 32 12 17 1011.5 1010.7 0.0
26/02:30pm 22.4 18.0 4.5 31 8.9 SW 17 28 9 15 1011.5 1010.7 0.0
26/02:00pm 22.7 18.0 5.2 32 8.9 WSW 19 28 10 15 1012.2 1011.3 0.0
26/01:30pm 22.5 18.1 4.5 31 9.0 WSW 17 24 9 13 1012.5 1011.6 0.0
26/01:00pm 22.1 18.3 5.9 35 8.3 W 15 24 8 13 1012.7 1011.8 0.0
26/12:30pm 21.4 18.4 7.6 41 7.3 WSW 13 22 7 12 1013.2 1012.4 0.0
26/12:00pm 21.0 17.5 5.4 36 7.9 WSW 13 19 7 10 1013.8 1013.0 0.0
26/11:30am 20.7 18.7 8.7 46 6.4 SSW 9 19 5 10 1014.3 1013.5 0.0
26/11:00am 20.5 16.9 6.8 41 7.1 SW 15 24 8 13 1014.9 1014.0 0.0
26/10:30am 19.8 15.3 6.2 41 6.9 SW 19 24 10 13 1015.3 1014.4 0.0
26/10:00am 18.5 14.5 6.7 46 6.0 SW 17 24 9 13 1015.6 1014.8 0.0
26/09:30am 18.6 14.1 6.8 46 6.0 SSW 20 30 11 16 1015.7 1014.9 0.0
26/09:00am 17.7 13.8 8.6 55 4.8 S 19 26 10 14 1015.8 1015.0 0.0
26/08:30am 16.7 13.7 9.4 62 3.9 SSW 15 24 8 13 1015.7 1014.9 0.0
26/08:00am 15.3 12.5 10.1 71 2.8 SSW 15 20 8 11 1015.6 1014.8 0.0
26/07:30am 14.0 12.7 10.0 77 2.1 S 7 13 4 7 1015.4 1014.5 0.0
26/07:00am 11.5 11.3 9.1 85 1.2 CALM 0 0 0 0 1015.1 1014.2 0.0
26/06:30am 9.7 7.6 8.3 91 0.7 NNW 9 11 5 6 1014.6 1013.8 0.0
26/06:00am 7.7 5.6 6.0 89 0.8 N 6 7 3 4 1014.2 1013.4 0.0
26/05:30am 7.4 5.2 5.2 86 1.0 E 6 7 3 4 1013.6 1012.8 0.0
26/05:00am 10.4 8.2 7.8 84 1.3 S 9 11 5 6 1013.2 1012.4 0.0
26/04:30am 10.9 8.4 8.3 84 1.3 S 11 15 6 8 1013.0 1012.1 0.0
26/04:00am 10.1 7.9 7.7 85 1.2 SSW 9 13 5 7 1012.9 1012.0 0.0
26/03:30am 9.6 7.2 7.2 85 1.2 SW 9 13 5 7 1012.8 1011.9 0.0
26/03:00am 10.1 7.4 7.3 83 1.4 SW 11 13 6 7 1012.8 1011.9 0.0
26/02:30am 10.5 7.9 7.6 82 1.4 SW 11 13 6 7 1012.9 1012.0 0.0
26/02:00am 10.7 7.7 7.6 81 1.5 SW 13 17 7 9 1013.0 1012.1 0.0
26/01:30am 10.8 8.1 7.3 79 1.7 WSW 11 13 6 7 1013.2 1012.4 0.0
26/01:00am 11.3 8.6 7.4 77 1.9 SW 11 15 6 8 1013.2 1012.4 0.0
26/12:30am 10.6 8.3 7.5 81 1.5 WSW 9 11 5 6 1013.4 1012.6 0.0
26/12:00am 10.4 8.0 6.9 79 1.7 W 9 9 5 5 1013.5 1012.7 0.0
 
Date/Time
EST
Temp
°C
App
Temp
°C
Dew
Point
°C
Rel
Hum
%
Delta-T
°C
Wind Press
QNH
hPa
Press
MSL
hPa
Rain since
9am
mm
Dir  Spd
km/h
Gust
km/h
Spd
kts
Gust
kts
25/11:30pm 11.7 9.7 7.2 74 2.2 WSW 7 9 4 5 1013.5 1012.7 0.0
25/11:00pm 10.7 8.8 6.5 75 2.0 SW 6 7 3 4 1013.4 1012.6 0.0
25/10:30pm 11.9 10.0 7.6 75 2.1 SW 7 9 4 5 1013.2 1012.4 0.0
25/10:00pm 12.2 10.4 7.9 75 2.1 W 7 7 4 4 1013.3 1012.5 0.0
25/09:30pm 12.5 10.4 8.2 75 2.2 W 9 9 5 5 1013.2 1012.4 0.0
25/09:00pm 13.1 10.6 8.0 71 2.6 WSW 11 13 6 7 1013.2 1012.4 0.0
25/08:30pm 13.8 11.6 8.0 68 2.9 WSW 9 9 5 5 1012.9 1012.0 0.0
25/08:00pm 15.6 12.6 7.9 60 3.9 WSW 13 15 7 8 1012.6 1011.7 0.0
25/07:30pm 16.7 13.7 7.6 55 4.7 SW 13 17 7 9 1012.4 1011.5 0.0
25/07:00pm 18.1 13.8 6.9 48 5.7 WSW 19 24 10 13 1011.9 1011.0 0.0
25/06:30pm 18.8 14.2 6.6 45 6.2 WSW 20 26 11 14 1011.3 1010.5 0.0
25/06:00pm 20.0 15.5 7.1 43 6.7 WSW 20 28 11 15 1010.8 1010.0 0.0
25/05:30pm 21.3 15.2 6.4 38 7.7 WSW 28 37 15 20 1010.2 1009.3 0.0
25/05:00pm 21.8 14.6 5.7 35 8.2 WSW 33 46 18 25 1009.6 1008.7 0.0
25/04:30pm 22.6 15.7 8.7 41 7.5 WSW 35 48 19 26 1009.1 1008.2 0.0
25/04:00pm 23.6 16.1 9.6 41 7.7 W 39 48 21 26 1008.9 1008.0 0.0
25/03:30pm 22.8 16.5 9.6 43 7.3 W 33 43 18 23 1008.7 1007.8 0.0
25/03:00pm 23.1 16.7 9.5 42 7.5 W 33 46 18 25 1008.4 1007.6 0.0
25/02:30pm 24.7 17.7 11.3 43 7.7 W 39 57 21 31 1008.2 1007.4 0.0
25/02:27pm 24.3 16.9 9.8 40 8.1 W 39 57 21 31 1008.2 1007.4 0.0
25/02:00pm 24.3 17.6 10.9 43 7.6 W 37 52 20 28 1008.4 1007.6 0.0
25/01:30pm 24.0 17.2 10.7 43 7.5 W 37 54 20 29 1008.7 1007.8 0.0
25/01:00pm 23.6 17.0 11.3 46 7.0 W 37 57 20 31 1008.7 1007.8 0.0
25/12:30pm 24.0 16.3 10.3 42 7.7 W 41 61 22 33 1009.0 1008.1 0.0
25/12:02pm 24.0 16.6 9.9 41 7.8 W 39 57 21 31 1009.0 1008.1 0.0
25/12:00pm 24.2 17.3 11.5 45 7.3 W 39 52 21 28 1009.1 1008.2 0.0
25/11:35am 23.2 17.0 9.9 43 7.4 W 33 52 18 28 1009.4 1008.5 0.0
25/11:30am 23.9 16.8 9.5 40 8.0 W 37 52 20 28 1009.3 1008.4 0.0
25/11:09am 23.4 17.1 9.8 42 7.5 W 33 52 18 28 1009.6 1008.7 0.0
25/11:00am 23.2 16.9 9.6 42 7.5 W 33 43 18 23 1009.7 1008.8 0.0
25/10:30am 22.2 15.5 9.7 45 6.9 WNW 35 46 19 25 1009.9 1009.0 0.0
25/10:00am 22.7 17.4 9.8 44 7.1 WNW 28 39 15 21 1010.1 1009.2 0.0
25/09:30am 22.1 17.8 10.6 48 6.4 NW 24 33 13 18 1010.2 1009.3 0.0
25/09:00am 21.4 17.4 10.6 50 6.0 NNW 22 28 12 15 1010.1 1009.2 0.2
25/08:30am 20.4 17.6 13.1 63 4.2 N 20 28 11 15 1010.0 1009.1 0.2
25/08:00am 16.6 14.1 12.4 76 2.4 N 17 20 9 11 1010.0 1009.1 0.2
25/07:30am 14.2 11.4 11.5 84 1.5 N 17 22 9 12 1010.1 1009.2 0.2
25/07:00am 13.0 10.8 10.7 86 1.2 N 13 17 7 9 1010.3 1009.4 0.2
25/06:30am 12.5 11.5 10.4 87 1.1 ENE 6 9 3 5 1010.7 1009.9 0.2
25/06:00am 12.6 11.9 10.1 85 1.3 N 4 9 2 5 1010.8 1010.0 0.0
25/05:30am 12.4 12.0 9.8 84 1.4 WSW 2 7 1 4 1010.6 1009.8 0.0
25/05:00am 12.2 10.9 9.8 85 1.2 NNW 7 7 4 4 1010.5 1009.7 0.0
25/04:30am 11.8 10.4 9.7 87 1.1 NW 7 9 4 5 1010.2 1009.3 0.0
25/04:00am 11.6 10.1 9.3 86 1.2 NNW 7 9 4 5 1009.9 1009.0 0.0
25/03:30am 11.4 9.9 9.0 85 1.2 NE 7 9 4 5 1009.9 1009.0 0.0
25/03:00am 11.0 10.8 8.9 87 1.1 CALM 0 0 0 0 1009.9 1009.0 0.0
25/02:30am 11.0 9.7 9.3 89 0.9 SE 6 7 3 4 1009.7 1008.8 0.0
25/02:00am 10.0 7.5 8.3 89 0.8 E 11 13 6 7 1009.5 1008.6 0.0
25/01:30am 10.2 8.5 8.3 88 0.9 E 7 9 4 5 1009.8 1008.9 0.0
25/01:00am 11.0 9.3 8.4 84 1.3 ESE 7 7 4 4 1010.0 1009.1 0.0
25/12:30am 11.5 9.9 8.7 83 1.4 E 7 9 4 5 1010.4 1009.5 0.0
25/12:00am 11.8 10.4 9.0 83 1.4 SE 6 7 3 4 1010.3 1009.4 0.0
 
Date/Time
EST
Temp
°C
App
Temp
°C
Dew
Point
°C
Rel
Hum
%
Delta-T
°C
Wind Press
QNH
hPa
Press
MSL
hPa
Rain since
9am
mm
Dir  Spd
km/h
Gust
km/h
Spd
kts
Gust
kts
24/11:30pm 11.5 9.1 8.5 82 1.5 ENE 11 13 6 7 1010.4 1009.5 0.0
24/11:00pm 11.4 9.0 8.8 84 1.3 ENE 11 13 6 7 1010.4 1009.5 0.0
24/10:30pm 11.6 8.9 8.8 83 1.4 ENE 13 15 7 8 1010.5 1009.7 0.0
24/10:00pm 11.7 9.0 8.9 83 1.4 ENE 13 17 7 9 1010.7 1009.9 0.0
24/09:30pm 11.9 9.5 8.7 81 1.6 ENE 11 15 6 8 1011.0 1010.2 0.0
24/09:00pm 12.3 10.0 9.1 81 1.6 E 11 17 6 9 1011.1 1010.3 0.0
24/08:30pm 13.3 11.8 9.0 75 2.2 ENE 7 9 4 5 1010.9 1010.1 0.0
24/08:00pm 16.6 15.2 9.5 63 3.8 S 7 9 4 5 1010.6 1009.8 0.0
24/07:30pm 17.9 16.1 9.5 58 4.5 SSW 9 11 5 6 1010.6 1009.8 0.0
24/07:00pm 18.1 16.5 10.2 60 4.3 SSW 9 13 5 7 1010.4 1009.5 0.0
24/06:30pm 18.4 15.9 9.7 57 4.7 SW 13 15 7 8 1010.5 1009.7 0.0
24/06:00pm 19.6 17.6 10.0 54 5.2 SSW 11 13 6 7 1010.0 1009.1 0.0
24/05:30pm 21.6 19.0 9.2 45 6.7 W 13 15 7 8 1009.8 1008.9 0.0
24/05:00pm 22.9 19.6 6.6 35 8.5 WSW 13 17 7 9 1009.6 1008.7 0.0
24/04:30pm 23.3 19.2 6.1 33 8.9 WNW 17 24 9 13 1009.5 1008.6 0.0
24/04:00pm 23.3 20.2 7.4 36 8.4 WNW 13 26 7 14 1009.2 1008.3 0.0
24/03:30pm 23.4 19.8 8.3 38 8.1 NW 17 28 9 15 1009.3 1008.4 0.0
24/03:00pm 23.4 20.4 7.5 36 8.5 NW 13 22 7 12 1009.2 1008.3 0.0
24/02:30pm 23.1 20.1 7.6 37 8.2 WNW 13 19 7 10 1009.6 1008.7 0.0
24/02:00pm 22.6 18.6 6.8 36 8.3 W 17 24 9 13 1010.1 1009.2 0.0
24/01:30pm 22.4 18.3 8.5 41 7.5 WNW 20 26 11 14 1010.6 1009.8 0.0
24/01:00pm 21.6 18.5 7.1 39 7.6 WSW 13 20 7 11 1010.9 1010.1 0.0
24/12:30pm 21.1 18.5 7.7 42 7.1 WNW 11 22 6 12 1011.5 1010.7 0.0
24/12:00pm 20.7 17.6 9.0 47 6.3 WNW 15 24 8 13 1012.3 1011.4 0.0
24/11:30am 20.1 17.3 8.4 47 6.2 WSW 13 28 7 15 1012.8 1011.9 0.0
24/11:00am 19.6 17.3 8.9 50 5.7 W 11 20 6 11 1013.2 1012.4 0.0
24/10:30am 18.6 16.7 7.4 48 5.8 W 7 15 4 8 1013.6 1012.8 0.0
24/10:00am 17.8 16.5 7.8 52 5.2 W 4 9 2 5 1013.9 1013.1 0.0
24/09:30am 17.3 15.9 8.7 57 4.5 ESE 6 13 3 7 1014.1 1013.3 0.0
24/09:00am 16.6 15.0 8.8 60 4.1 SSE 7 13 4 7 1014.3 1013.5 0.0
24/08:30am 15.2 15.0 9.1 67 3.2 CALM 0 6 0 3 1014.4 1013.6 0.0
24/08:00am 14.0 13.9 9.4 74 2.4 CALM 0 0 0 0 1014.5 1013.7 0.0
24/07:30am 11.8 11.1 8.5 80 1.7 E 2 6 1 3 1014.4 1013.6 0.0
24/07:00am 9.2 8.2 7.2 87 1.0 NE 2 6 1 3 1014.2 1013.4 0.0
24/06:30am 6.8 4.4 5.3 90 0.7 ENE 7 9 4 5 1013.8 1013.0 0.0
24/06:00am 5.1 2.5 3.3 88 0.8 N 6 6 3 3 1013.6 1012.8 0.0
24/05:30am 6.0 4.0 4.5 90 0.7 NW 4 7 2 4 1013.4 1012.6 0.0
24/05:00am 6.1 4.9 4.6 90 0.7 CALM 0 0 0 0 1013.1 1012.3 0.0
24/04:30am 6.5 4.6 5.1 91 0.6 WSW 4 7 2 4 1012.8 1011.9 0.0
24/04:00am 6.5 5.4 5.1 91 0.6 CALM 0 0 0 0 1012.4 1011.5 0.0
24/03:30am 6.5 4.2 5.0 90 0.7 N 6 7 3 4 1012.5 1011.6 0.0
24/03:00am 6.6 4.2 5.1 90 0.7 NE 7 7 4 4 1012.3 1011.4 0.0
24/02:30am 6.3 3.8 4.8 90 0.7 ENE 7 9 4 5 1012.2 1011.3 0.0
24/02:00am 6.2 2.9 4.5 89 0.7 NE 11 13 6 7 1012.3 1011.4 0.0
24/01:30am 6.8 3.2 5.1 89 0.8 ENE 13 19 7 10 1012.4 1011.5 0.0
24/01:00am 6.8 4.5 5.0 88 0.8 ENE 6 11 3 6 1012.7 1011.8 0.0
24/12:30am 7.6 5.5 5.7 88 0.9 N 6 7 3 4 1012.8 1011.9 0.0
24/12:00am 9.7 8.0 7.5 86 1.1 W 6 7 3 4 1013.3 1012.5 0.0
 
Date/Time
EST
Temp
°C
App
Temp
°C
Dew
Point
°C
Rel
Hum
%
Delta-T
°C
Wind Press
QNH
hPa
Press
MSL
hPa
Rain since
9am
mm
Dir  Spd
km/h
Gust
km/h
Spd
kts
Gust
kts
23/11:30pm 9.6 7.7 7.4 86 1.1 WNW 7 7 4 4 1013.5 1012.7 0.0
23/11:00pm 9.5 7.2 7.3 86 1.1 W 9 9 5 5 1013.4 1012.6 0.0
23/10:30pm 11.0 10.6 8.2 83 1.4 CALM 0 0 0 0 1013.3 1012.5 0.0

Other Formats:

Comma delimited format used in spreadsheet applications
http://www.bom.gov.au/fwo/IDQ60801/IDQ60801.94542.axf

JavaScript Object Notation format (JSON) in row-major order
http://www.bom.gov.au/fwo/IDQ60801/IDQ60801.94542.json